Frisco, Colorado
Current Conditions -  °F | °C
As of 11:57 PM on Monday 20 Oct 2014 (Local Time) from KCCU Reporting Station
Clear Clear  
Wind Chill: 33°   Ceiling: Unl
Heat Index: 41°   Visibility: 10mi
Dew Point: 28°   Wind: 15mph
Humidity: 61%   Direction: 180°S
Pressure: 30.43"   Gusts: NA
Location:  39.57°N, 106.1°W
Report Text: KCCU 210557Z AUTO 18013KT 10SM CLR 05/M02 A3043 RMK AO2
Loading
Personal Weather Stations






























Interactive Weather Map
Tropical Storm Tracking
New forecast layout! Learn more

10-Day Weather Forecast

Advertisements
Track Severe Weather on mobile